sensor_id;sensor_type;location;lat;lon;timestamp;P1;durP1;ratioP1;P2;durP2;ratioP2
64857;SDS011;51335;51.148;6.950;2023-06-14T00:00:14;7.32;;;4.38;;
64857;SDS011;51335;51.148;6.950;2023-06-14T00:00:45;7.25;;;4.30;;
64857;SDS011;51335;51.148;6.950;2023-06-14T00:01:15;6.88;;;4.22;;
64857;SDS011;51335;51.148;6.950;2023-06-14T00:01:45;8.45;;;4.30;;
64857;SDS011;51335;51.148;6.950;2023-06-14T00:02:15;7.95;;;4.70;;
64857;SDS011;51335;51.148;6.950;2023-06-14T00:02:46;6.68;;;4.20;;
64857;SDS011;51335;51.148;6.950;2023-06-14T00:03:16;7.90;;;4.30;;
64857;SDS011;51335;51.148;6.950;2023-06-14T00:03:46;6.05;;;4.03;;
64857;SDS011;51335;51.148;6.950;2023-06-14T00:04:17;8.88;;;4.28;;
64857;SDS011;51335;51.148;6.950;2023-06-14T00:04:47;7.10;;;4.60;;
64857;SDS011;51335;51.148;6.950;2023-06-14T00:05:17;5.95;;;4.30;;
64857;SDS011;51335;51.148;6.950;2023-06-14T00:05:48;5.93;;;4.10;;
64857;SDS011;51335;51.148;6.950;2023-06-14T00:06:18;5.50;;;4.22;;
64857;SDS011;51335;51.148;6.950;2023-06-14T00:06:48;5.85;;;4.30;;
64857;SDS011;51335;51.148;6.950;2023-06-14T00:07:20;6.15;;;4.30;;
64857;SDS011;51335;51.148;6.950;2023-06-14T00:08:03;6.22;;;4.00;;
64857;SDS011;51335;51.148;6.950;2023-06-14T00:08:33;7.25;;;4.28;;
64857;SDS011;51335;51.148;6.950;2023-06-14T00:09:03;6.93;;;4.30;;
64857;SDS011;51335;51.148;6.950;2023-06-14T00:09:34;5.78;;;4.28;;
64857;SDS011;51335;51.148;6.950;2023-06-14T00:10:05;5.65;;;3.92;;
64857;SDS011;51335;51.148;6.950;2023-06-14T00:10:36;5.57;;;4.25;;
64857;SDS011;51335;51.148;6.950;2023-06-14T00:11:06;5.82;;;4.20;;
64857;SDS011;51335;51.148;6.950;2023-06-14T00:11:37;7.57;;;4.60;;
64857;SDS011;51335;51.148;6.950;2023-06-14T00:12:07;7.57;;;4.32;;
64857;SDS011;51335;51.148;6.950;2023-06-14T00:12:38;7.90;;;4.10;;
64857;SDS011;51335;51.148;6.950;2023-06-14T00:13:08;4.70;;;3.80;;
64857;SDS011;51335;51.148;6.950;2023-06-14T00:13:39;6.43;;;4.25;;
64857;SDS011;51335;51.148;6.950;2023-06-14T00:14:09;7.45;;;4.20;;
64857;SDS011;51335;51.148;6.950;2023-06-14T00:14:39;6.85;;;4.13;;
64857;SDS011;51335;51.148;6.950;2023-06-14T00:15:10;6.88;;;4.05;;
64857;SDS011;51335;51.148;6.950;2023-06-14T00:15:40;6.35;;;4.20;;
64857;SDS011;51335;51.148;6.950;2023-06-14T00:16:10;7.57;;;4.10;;
64857;SDS011;51335;51.148;6.950;2023-06-14T00:16:40;6.35;;;4.10;;
64857;SDS011;51335;51.148;6.950;2023-06-14T00:17:11;7.15;;;4.40;;
64857;SDS011;51335;51.148;6.950;2023-06-14T00:17:41;6.28;;;4.20;;
64857;SDS011;51335;51.148;6.950;2023-06-14T00:18:11;5.70;;;4.30;;
64857;SDS011;51335;51.148;6.950;2023-06-14T00:18:42;6.75;;;4.07;;
64857;SDS011;51335;51.148;6.950;2023-06-14T00:19:12;5.10;;;4.00;;
64857;SDS011;51335;51.148;6.950;2023-06-14T00:19:43;6.68;;;4.40;;
64857;SDS011;51335;51.148;6.950;2023-06-14T00:20:13;6.72;;;3.92;;
64857;SDS011;51335;51.148;6.950;2023-06-14T00:20:43;6.38;;;4.22;;
64857;SDS011;51335;51.148;6.950;2023-06-14T00:21:13;6.20;;;4.20;;
64857;SDS011;51335;51.148;6.950;2023-06-14T00:21:43;6.72;;;4.03;;
64857;SDS011;51335;51.148;6.950;2023-06-14T00:22:14;8.80;;;4.25;;
64857;SDS011;51335;51.148;6.950;2023-06-14T00:22:44;9.10;;;4.65;;
64857;SDS011;51335;51.148;6.950;2023-06-14T00:23:14;7.50;;;4.20;;
64857;SDS011;51335;51.148;6.950;2023-06-14T00:23:45;6.45;;;3.92;;
64857;SDS011;51335;51.148;6.950;2023-06-14T00:24:15;6.63;;;4.18;;
64857;SDS011;51335;51.148;6.950;2023-06-14T00:24:46;8.30;;;3.78;;
64857;SDS011;51335;51.148;6.950;2023-06-14T00:25:16;5.47;;;3.88;;
64857;SDS011;51335;51.148;6.950;2023-06-14T00:25:46;5.25;;;3.95;;
64857;SDS011;51335;51.148;6.950;2023-06-14T00:26:17;6.50;;;4.10;;
64857;SDS011;51335;51.148;6.950;2023-06-14T00:26:47;6.13;;;4.03;;
64857;SDS011;51335;51.148;6.950;2023-06-14T00:27:17;5.75;;;4.10;;
64857;SDS011;51335;51.148;6.950;2023-06-14T00:27:47;6.25;;;4.30;;
64857;SDS011;51335;51.148;6.950;2023-06-14T00:28:18;8.65;;;4.40;;
64857;SDS011;51335;51.148;6.950;2023-06-14T00:28:48;5.03;;;4.00;;
64857;SDS011;51335;51.148;6.950;2023-06-14T00:29:18;7.50;;;4.10;;
64857;SDS011;51335;51.148;6.950;2023-06-14T00:29:48;8.93;;;4.57;;
64857;SDS011;51335;51.148;6.950;2023-06-14T00:30:19;6.32;;;4.50;;
64857;SDS011;51335;51.148;6.950;2023-06-14T00:30:49;5.82;;;3.92;;
64857;SDS011;51335;51.148;6.950;2023-06-14T00:31:20;7.88;;;4.68;;
64857;SDS011;51335;51.148;6.950;2023-06-14T00:31:50;6.93;;;4.70;;
64857;SDS011;51335;51.148;6.950;2023-06-14T00:32:20;7.55;;;4.40;;
64857;SDS011;51335;51.148;6.950;2023-06-14T00:32:50;5.70;;;4.30;;
64857;SDS011;51335;51.148;6.950;2023-06-14T00:33:21;7.55;;;4.28;;
64857;SDS011;51335;51.148;6.950;2023-06-14T00:33:51;11.57;;;4.45;;
64857;SDS011;51335;51.148;6.950;2023-06-14T00:34:21;8.20;;;4.32;;
64857;SDS011;51335;51.148;6.950;2023-06-14T00:34:52;7.10;;;4.18;;
64857;SDS011;51335;51.148;6.950;2023-06-14T00:35:22;7.93;;;4.20;;
64857;SDS011;51335;51.148;6.950;2023-06-14T00:35:52;7.18;;;4.35;;
64857;SDS011;51335;51.148;6.950;2023-06-14T00:36:22;6.63;;;4.40;;
64857;SDS011;51335;51.148;6.950;2023-06-14T00:36:53;5.53;;;4.00;;
64857;SDS011;51335;51.148;6.950;2023-06-14T00:37:23;5.82;;;3.95;;
64857;SDS011;51335;51.148;6.950;2023-06-14T00:37:53;7.57;;;4.60;;
64857;SDS011;51335;51.148;6.950;2023-06-14T00:38:23;5.93;;;3.90;;
64857;SDS011;51335;51.148;6.950;2023-06-14T00:38:54;5.18;;;4.22;;
64857;SDS011;51335;51.148;6.950;2023-06-14T00:39:24;6.20;;;4.00;;
64857;SDS011;51335;51.148;6.950;2023-06-14T00:39:54;7.50;;;3.88;;
64857;SDS011;51335;51.148;6.950;2023-06-14T00:40:24;7.18;;;4.25;;
64857;SDS011;51335;51.148;6.950;2023-06-14T00:40:55;6.43;;;4.15;;
64857;SDS011;51335;51.148;6.950;2023-06-14T00:41:25;5.03;;;3.92;;
64857;SDS011;51335;51.148;6.950;2023-06-14T00:41:55;6.00;;;4.15;;
64857;SDS011;51335;51.148;6.950;2023-06-14T00:42:26;5.43;;;3.92;;
64857;SDS011;51335;51.148;6.950;2023-06-14T00:42:57;6.65;;;4.35;;
64857;SDS011;51335;51.148;6.950;2023-06-14T00:43:27;5.72;;;4.28;;
64857;SDS011;51335;51.148;6.950;2023-06-14T00:43:57;6.43;;;4.53;;
64857;SDS011;51335;51.148;6.950;2023-06-14T00:44:27;6.80;;;3.83;;
64857;SDS011;51335;51.148;6.950;2023-06-14T00:44:58;6.72;;;4.07;;
64857;SDS011;51335;51.148;6.950;2023-06-14T00:45:28;8.15;;;4.65;;
64857;SDS011;51335;51.148;6.950;2023-06-14T00:45:58;7.57;;;4.28;;
64857;SDS011;51335;51.148;6.950;2023-06-14T00:46:28;6.10;;;4.10;;
64857;SDS011;51335;51.148;6.950;2023-06-14T00:46:59;10.20;;;4.40;;
64857;SDS011;51335;51.148;6.950;2023-06-14T00:47:29;6.15;;;4.25;;
64857;SDS011;51335;51.148;6.950;2023-06-14T00:48:00;5.53;;;4.38;;
64857;SDS011;51335;51.148;6.950;2023-06-14T00:48:38;7.07;;;4.60;;
64857;SDS011;51335;51.148;6.950;2023-06-14T00:49:10;5.78;;;4.05;;
64857;SDS011;51335;51.148;6.950;2023-06-14T00:49:41;6.88;;;4.07;;
64857;SDS011;51335;51.148;6.950;2023-06-14T00:50:11;5.78;;;4.10;;
64857;SDS011;51335;51.148;6.950;2023-06-14T00:50:42;5.85;;;4.15;;
64857;SDS011;51335;51.148;6.950;2023-06-14T00:51:12;5.47;;;4.00;;
64857;SDS011;51335;51.148;6.950;2023-06-14T00:51:43;7.05;;;4.10;;
64857;SDS011;51335;51.148;6.950;2023-06-14T00:52:14;6.50;;;4.05;;
64857;SDS011;51335;51.148;6.950;2023-06-14T00:52:45;7.55;;;4.32;;
64857;SDS011;51335;51.148;6.950;2023-06-14T00:53:16;5.85;;;4.32;;
64857;SDS011;51335;51.148;6.950;2023-06-14T00:53:47;6.78;;;4.13;;
64857;SDS011;51335;51.148;6.950;2023-06-14T00:54:17;6.20;;;3.88;;
64857;SDS011;51335;51.148;6.950;2023-06-14T00:54:47;6.80;;;4.07;;
64857;SDS011;51335;51.148;6.950;2023-06-14T00:55:18;7.10;;;4.35;;
64857;SDS011;51335;51.148;6.950;2023-06-14T00:55:48;6.90;;;4.53;;
64857;SDS011;51335;51.148;6.950;2023-06-14T00:56:19;5.85;;;4.45;;
64857;SDS011;51335;51.148;6.950;2023-06-14T00:56:49;7.38;;;4.40;;
64857;SDS011;51335;51.148;6.950;2023-06-14T00:57:19;12.02;;;4.57;;
64857;SDS011;51335;51.148;6.950;2023-06-14T00:57:49;7.63;;;4.50;;
64857;SDS011;51335;51.148;6.950;2023-06-14T00:58:21;6.00;;;4.18;;
64857;SDS011;51335;51.148;6.950;2023-06-14T00:58:52;7.93;;;4.57;;
64857;SDS011;51335;51.148;6.950;2023-06-14T00:59:22;5.72;;;4.60;;
64857;SDS011;51335;51.148;6.950;2023-06-14T00:59:53;6.18;;;4.28;;
64857;SDS011;51335;51.148;6.950;2023-06-14T01:00:23;8.30;;;4.32;;
64857;SDS011;51335;51.148;6.950;2023-06-14T01:00:53;7.07;;;4.15;;
64857;SDS011;51335;51.148;6.950;2023-06-14T01:01:24;7.25;;;4.50;;
64857;SDS011;51335;51.148;6.950;2023-06-14T01:01:54;7.50;;;4.47;;
64857;SDS011;51335;51.148;6.950;2023-06-14T01:02:25;8.77;;;4.50;;
64857;SDS011;51335;51.148;6.950;2023-06-14T01:02:55;7.05;;;4.50;;
64857;SDS011;51335;51.148;6.950;2023-06-14T01:03:25;6.35;;;4.20;;
64857;SDS011;51335;51.148;6.950;2023-06-14T01:03:55;7.32;;;4.20;;
64857;SDS011;51335;51.148;6.950;2023-06-14T01:04:26;6.22;;;4.10;;
64857;SDS011;51335;51.148;6.950;2023-06-14T01:04:56;5.82;;;4.32;;
64857;SDS011;51335;51.148;6.950;2023-06-14T01:05:26;7.82;;;4.20;;
64857;SDS011;51335;51.148;6.950;2023-06-14T01:06:10;5.80;;;4.35;;
64857;SDS011;51335;51.148;6.950;2023-06-14T01:06:54;6.55;;;4.07;;
64857;SDS011;51335;51.148;6.950;2023-06-14T01:07:55;8.70;;;4.50;;
64857;SDS011;51335;51.148;6.950;2023-06-14T01:08:50;7.95;;;4.70;;
64857;SDS011;51335;51.148;6.950;2023-06-14T01:10:31;7.47;;;4.35;;
64857;SDS011;51335;51.148;6.950;2023-06-14T01:11:26;5.30;;;4.00;;
64857;SDS011;51335;51.148;6.950;2023-06-14T01:12:05;7.75;;;4.18;;
64857;SDS011;51335;51.148;6.950;2023-06-14T01:13:25;7.93;;;4.22;;
64857;SDS011;51335;51.148;6.950;2023-06-14T01:14:02;7.20;;;4.18;;
64857;SDS011;51335;51.148;6.950;2023-06-14T01:14:33;5.20;;;4.53;;
64857;SDS011;51335;51.148;6.950;2023-06-14T01:15:05;7.53;;;4.22;;
64857;SDS011;51335;51.148;6.950;2023-06-14T01:15:36;6.45;;;4.32;;
64857;SDS011;51335;51.148;6.950;2023-06-14T01:16:08;5.82;;;4.57;;
64857;SDS011;51335;51.148;6.950;2023-06-14T01:16:38;6.20;;;4.45;;
64857;SDS011;51335;51.148;6.950;2023-06-14T01:17:09;6.55;;;4.53;;
64857;SDS011;51335;51.148;6.950;2023-06-14T01:17:40;8.02;;;4.45;;
64857;SDS011;51335;51.148;6.950;2023-06-14T01:18:11;7.43;;;4.60;;
64857;SDS011;51335;51.148;6.950;2023-06-14T01:18:41;5.15;;;4.10;;
64857;SDS011;51335;51.148;6.950;2023-06-14T01:19:13;7.00;;;4.80;;
64857;SDS011;51335;51.148;6.950;2023-06-14T01:19:45;7.40;;;4.68;;
64857;SDS011;51335;51.148;6.950;2023-06-14T01:20:16;6.72;;;4.40;;
64857;SDS011;51335;51.148;6.950;2023-06-14T01:20:47;4.93;;;4.40;;
64857;SDS011;51335;51.148;6.950;2023-06-14T01:21:24;5.47;;;4.60;;
64857;SDS011;51335;51.148;6.950;2023-06-14T01:21:55;7.70;;;4.47;;
64857;SDS011;51335;51.148;6.950;2023-06-14T01:22:26;9.52;;;4.75;;
64857;SDS011;51335;51.148;6.950;2023-06-14T01:22:56;6.10;;;4.40;;
64857;SDS011;51335;51.148;6.950;2023-06-14T01:23:26;7.07;;;4.57;;
64857;SDS011;51335;51.148;6.950;2023-06-14T01:23:57;8.48;;;4.40;;
64857;SDS011;51335;51.148;6.950;2023-06-14T01:24:27;7.68;;;4.90;;
64857;SDS011;51335;51.148;6.950;2023-06-14T01:24:57;6.82;;;4.70;;
64857;SDS011;51335;51.148;6.950;2023-06-14T01:25:28;5.75;;;4.10;;
64857;SDS011;51335;51.148;6.950;2023-06-14T01:25:58;6.18;;;4.40;;
64857;SDS011;51335;51.148;6.950;2023-06-14T01:26:29;5.38;;;4.15;;
64857;SDS011;51335;51.148;6.950;2023-06-14T01:27:00;5.28;;;4.47;;
64857;SDS011;51335;51.148;6.950;2023-06-14T01:27:32;6.70;;;4.50;;
64857;SDS011;51335;51.148;6.950;2023-06-14T01:28:04;6.15;;;4.10;;
64857;SDS011;51335;51.148;6.950;2023-06-14T01:28:36;5.82;;;4.47;;
64857;SDS011;51335;51.148;6.950;2023-06-14T01:29:06;7.32;;;4.57;;
64857;SDS011;51335;51.148;6.950;2023-06-14T01:29:37;6.38;;;4.30;;
64857;SDS011;51335;51.148;6.950;2023-06-14T01:30:08;5.70;;;4.28;;
64857;SDS011;51335;51.148;6.950;2023-06-14T01:30:40;9.00;;;4.68;;
64857;SDS011;51335;51.148;6.950;2023-06-14T01:31:11;8.13;;;4.47;;
64857;SDS011;51335;51.148;6.950;2023-06-14T01:31:41;6.78;;;4.97;;
64857;SDS011;51335;51.148;6.950;2023-06-14T01:32:12;7.50;;;4.30;;
64857;SDS011;51335;51.148;6.950;2023-06-14T01:32:42;8.65;;;4.20;;
64857;SDS011;51335;51.148;6.950;2023-06-14T01:33:14;5.72;;;4.40;;
64857;SDS011;51335;51.148;6.950;2023-06-14T01:33:47;5.45;;;4.43;;
64857;SDS011;51335;51.148;6.950;2023-06-14T01:34:19;7.75;;;4.85;;
64857;SDS011;51335;51.148;6.950;2023-06-14T01:34:50;7.82;;;4.57;;
64857;SDS011;51335;51.148;6.950;2023-06-14T01:35:20;7.50;;;4.45;;
64857;SDS011;51335;51.148;6.950;2023-06-14T01:35:51;6.20;;;4.55;;
64857;SDS011;51335;51.148;6.950;2023-06-14T01:36:22;8.52;;;4.68;;
64857;SDS011;51335;51.148;6.950;2023-06-14T01:36:56;5.55;;;4.18;;
64857;SDS011;51335;51.148;6.950;2023-06-14T01:37:27;6.35;;;4.60;;
64857;SDS011;51335;51.148;6.950;2023-06-14T01:37:58;7.30;;;4.82;;
64857;SDS011;51335;51.148;6.950;2023-06-14T01:38:29;5.35;;;4.30;;
64857;SDS011;51335;51.148;6.950;2023-06-14T01:39:01;9.13;;;4.43;;
64857;SDS011;51335;51.148;6.950;2023-06-14T01:39:31;6.22;;;4.30;;
64857;SDS011;51335;51.148;6.950;2023-06-14T01:40:05;10.02;;;4.75;;
64857;SDS011;51335;51.148;6.950;2023-06-14T01:40:37;8.55;;;4.57;;
64857;SDS011;51335;51.148;6.950;2023-06-14T01:41:08;6.13;;;4.40;;
64857;SDS011;51335;51.148;6.950;2023-06-14T01:41:41;7.25;;;4.72;;
64857;SDS011;51335;51.148;6.950;2023-06-14T01:42:13;5.95;;;4.72;;
64857;SDS011;51335;51.148;6.950;2023-06-14T01:42:44;6.07;;;4.72;;
64857;SDS011;51335;51.148;6.950;2023-06-14T01:43:17;6.88;;;4.53;;
64857;SDS011;51335;51.148;6.950;2023-06-14T01:43:48;7.13;;;4.70;;
64857;SDS011;51335;51.148;6.950;2023-06-14T01:44:20;12.48;;;5.00;;
64857;SDS011;51335;51.148;6.950;2023-06-14T01:44:52;7.80;;;4.80;;
64857;SDS011;51335;51.148;6.950;2023-06-14T01:45:24;7.15;;;4.97;;
64857;SDS011;51335;51.148;6.950;2023-06-14T01:45:54;7.07;;;4.70;;
64857;SDS011;51335;51.148;6.950;2023-06-14T01:46:26;6.63;;;4.93;;
64857;SDS011;51335;51.148;6.950;2023-06-14T01:46:57;6.15;;;4.70;;
64857;SDS011;51335;51.148;6.950;2023-06-14T01:47:27;5.78;;;4.55;;
64857;SDS011;51335;51.148;6.950;2023-06-14T01:47:58;5.97;;;4.32;;
64857;SDS011;51335;51.148;6.950;2023-06-14T01:48:29;6.40;;;4.85;;
64857;SDS011;51335;51.148;6.950;2023-06-14T01:48:59;7.70;;;4.70;;
64857;SDS011;51335;51.148;6.950;2023-06-14T01:49:29;7.20;;;4.68;;
64857;SDS011;51335;51.148;6.950;2023-06-14T01:50:04;7.38;;;4.90;;
64857;SDS011;51335;51.148;6.950;2023-06-14T01:50:34;8.18;;;4.40;;
64857;SDS011;51335;51.148;6.950;2023-06-14T01:51:05;5.63;;;4.40;;
64857;SDS011;51335;51.148;6.950;2023-06-14T01:51:35;7.13;;;4.70;;
64857;SDS011;51335;51.148;6.950;2023-06-14T01:52:05;6.10;;;4.60;;
64857;SDS011;51335;51.148;6.950;2023-06-14T01:52:39;7.20;;;4.57;;
64857;SDS011;51335;51.148;6.950;2023-06-14T01:53:10;5.95;;;4.50;;
64857;SDS011;51335;51.148;6.950;2023-06-14T01:53:40;6.10;;;4.80;;
64857;SDS011;51335;51.148;6.950;2023-06-14T01:54:10;6.85;;;4.90;;
64857;SDS011;51335;51.148;6.950;2023-06-14T01:54:41;8.50;;;4.65;;
64857;SDS011;51335;51.148;6.950;2023-06-14T01:55:11;5.95;;;4.57;;
64857;SDS011;51335;51.148;6.950;2023-06-14T01:55:41;6.30;;;4.60;;
64857;SDS011;51335;51.148;6.950;2023-06-14T01:56:12;6.28;;;4.68;;
64857;SDS011;51335;51.148;6.950;2023-06-14T01:56:42;7.95;;;4.65;;
64857;SDS011;51335;51.148;6.950;2023-06-14T01:57:12;7.30;;;4.30;;
64857;SDS011;51335;51.148;6.950;2023-06-14T01:57:42;8.85;;;4.60;;
64857;SDS011;51335;51.148;6.950;2023-06-14T01:58:13;7.63;;;4.63;;
64857;SDS011;51335;51.148;6.950;2023-06-14T01:58:43;10.55;;;4.90;;
64857;SDS011;51335;51.148;6.950;2023-06-14T01:59:14;6.90;;;4.72;;
64857;SDS011;51335;51.148;6.950;2023-06-14T01:59:44;5.93;;;4.18;;
64857;SDS011;51335;51.148;6.950;2023-06-14T02:00:14;7.82;;;4.97;;
64857;SDS011;51335;51.148;6.950;2023-06-14T02:00:45;6.82;;;4.63;;
64857;SDS011;51335;51.148;6.950;2023-06-14T02:01:15;6.70;;;4.63;;
64857;SDS011;51335;51.148;6.950;2023-06-14T02:01:45;10.27;;;4.68;;
64857;SDS011;51335;51.148;6.950;2023-06-14T02:02:16;5.20;;;4.18;;
64857;SDS011;51335;51.148;6.950;2023-06-14T02:02:46;6.22;;;4.72;;
64857;SDS011;51335;51.148;6.950;2023-06-14T02:03:16;7.15;;;4.72;;
64857;SDS011;51335;51.148;6.950;2023-06-14T02:03:47;6.25;;;4.45;;
64857;SDS011;51335;51.148;6.950;2023-06-14T02:04:17;6.63;;;4.65;;
64857;SDS011;51335;51.148;6.950;2023-06-14T02:04:48;6.47;;;4.32;;
64857;SDS011;51335;51.148;6.950;2023-06-14T02:05:18;7.63;;;4.70;;
64857;SDS011;51335;51.148;6.950;2023-06-14T02:05:48;8.18;;;4.85;;
64857;SDS011;51335;51.148;6.950;2023-06-14T02:06:18;6.22;;;4.18;;
64857;SDS011;51335;51.148;6.950;2023-06-14T02:06:49;7.35;;;4.53;;
64857;SDS011;51335;51.148;6.950;2023-06-14T02:07:19;6.25;;;4.40;;
64857;SDS011;51335;51.148;6.950;2023-06-14T02:07:49;9.30;;;4.65;;
64857;SDS011;51335;51.148;6.950;2023-06-14T02:08:19;12.65;;;5.15;;
64857;SDS011;51335;51.148;6.950;2023-06-14T02:08:50;7.15;;;4.88;;
64857;SDS011;51335;51.148;6.950;2023-06-14T02:09:20;10.02;;;4.70;;
64857;SDS011;51335;51.148;6.950;2023-06-14T02:09:50;9.25;;;5.03;;
64857;SDS011;51335;51.148;6.950;2023-06-14T02:10:20;8.80;;;5.10;;
64857;SDS011;51335;51.148;6.950;2023-06-14T02:10:51;8.65;;;4.90;;
64857;SDS011;51335;51.148;6.950;2023-06-14T02:11:21;8.05;;;4.45;;
64857;SDS011;51335;51.148;6.950;2023-06-14T02:11:52;8.45;;;5.30;;
64857;SDS011;51335;51.148;6.950;2023-06-14T02:12:22;8.23;;;5.05;;
64857;SDS011;51335;51.148;6.950;2023-06-14T02:12:52;7.40;;;4.93;;
64857;SDS011;51335;51.148;6.950;2023-06-14T02:13:22;8.48;;;5.00;;
64857;SDS011;51335;51.148;6.950;2023-06-14T02:13:53;8.00;;;5.90;;
64857;SDS011;51335;51.148;6.950;2023-06-14T02:14:23;6.68;;;5.10;;
64857;SDS011;51335;51.148;6.950;2023-06-14T02:14:54;7.47;;;5.00;;
64857;SDS011;51335;51.148;6.950;2023-06-14T02:15:24;6.10;;;4.57;;
64857;SDS011;51335;51.148;6.950;2023-06-14T02:15:54;9.05;;;4.50;;
64857;SDS011;51335;51.148;6.950;2023-06-14T02:16:24;9.40;;;4.55;;
64857;SDS011;51335;51.148;6.950;2023-06-14T02:16:55;9.02;;;4.28;;
64857;SDS011;51335;51.148;6.950;2023-06-14T02:17:25;7.78;;;5.07;;
64857;SDS011;51335;51.148;6.950;2023-06-14T02:17:55;6.65;;;4.65;;
64857;SDS011;51335;51.148;6.950;2023-06-14T02:18:26;7.40;;;4.57;;
64857;SDS011;51335;51.148;6.950;2023-06-14T02:18:56;7.43;;;4.60;;
64857;SDS011;51335;51.148;6.950;2023-06-14T02:19:26;8.35;;;5.00;;
64857;SDS011;51335;51.148;6.950;2023-06-14T02:19:57;7.43;;;4.50;;
64857;SDS011;51335;51.148;6.950;2023-06-14T02:20:27;8.55;;;4.88;;
64857;SDS011;51335;51.148;6.950;2023-06-14T02:20:58;7.32;;;5.40;;
64857;SDS011;51335;51.148;6.950;2023-06-14T02:21:28;9.75;;;6.53;;
64857;SDS011;51335;51.148;6.950;2023-06-14T02:21:58;10.45;;;6.40;;
64857;SDS011;51335;51.148;6.950;2023-06-14T02:22:29;8.52;;;5.13;;
64857;SDS011;51335;51.148;6.950;2023-06-14T02:22:59;7.18;;;5.45;;
64857;SDS011;51335;51.148;6.950;2023-06-14T02:23:30;10.23;;;6.05;;
64857;SDS011;51335;51.148;6.950;2023-06-14T02:24:00;11.27;;;6.20;;
64857;SDS011;51335;51.148;6.950;2023-06-14T02:24:30;8.77;;;5.30;;
64857;SDS011;51335;51.148;6.950;2023-06-14T02:25:00;8.10;;;4.50;;
64857;SDS011;51335;51.148;6.950;2023-06-14T02:25:31;5.97;;;4.80;;
64857;SDS011;51335;51.148;6.950;2023-06-14T02:26:01;7.40;;;5.07;;
64857;SDS011;51335;51.148;6.950;2023-06-14T02:26:31;11.80;;;6.45;;
64857;SDS011;51335;51.148;6.950;2023-06-14T02:27:02;8.25;;;5.30;;
64857;SDS011;51335;51.148;6.950;2023-06-14T02:27:33;9.15;;;5.68;;
64857;SDS011;51335;51.148;6.950;2023-06-14T02:28:04;8.60;;;5.63;;
64857;SDS011;51335;51.148;6.950;2023-06-14T02:28:34;9.25;;;5.97;;
64857;SDS011;51335;51.148;6.950;2023-06-14T02:29:04;7.30;;;4.80;;
64857;SDS011;51335;51.148;6.950;2023-06-14T02:29:35;7.47;;;5.18;;
64857;SDS011;51335;51.148;6.950;2023-06-14T02:30:05;7.25;;;5.43;;
64857;SDS011;51335;51.148;6.950;2023-06-14T02:30:36;6.15;;;4.55;;
64857;SDS011;51335;51.148;6.950;2023-06-14T02:31:06;6.05;;;4.55;;
64857;SDS011;51335;51.148;6.950;2023-06-14T02:31:37;8.55;;;4.95;;
64857;SDS011;51335;51.148;6.950;2023-06-14T02:32:09;8.35;;;5.20;;
64857;SDS011;51335;51.148;6.950;2023-06-14T02:32:39;7.63;;;4.53;;
64857;SDS011;51335;51.148;6.950;2023-06-14T02:33:09;8.88;;;5.03;;
64857;SDS011;51335;51.148;6.950;2023-06-14T02:33:40;9.55;;;5.40;;
64857;SDS011;51335;51.148;6.950;2023-06-14T02:34:10;6.35;;;4.82;;
64857;SDS011;51335;51.148;6.950;2023-06-14T02:34:40;8.43;;;5.00;;
64857;SDS011;51335;51.148;6.950;2023-06-14T02:35:10;9.05;;;5.07;;
64857;SDS011;51335;51.148;6.950;2023-06-14T02:35:41;6.95;;;4.90;;
64857;SDS011;51335;51.148;6.950;2023-06-14T02:36:11;5.93;;;4.75;;
64857;SDS011;51335;51.148;6.950;2023-06-14T02:36:41;8.82;;;5.15;;
64857;SDS011;51335;51.148;6.950;2023-06-14T02:37:11;6.95;;;4.88;;
64857;SDS011;51335;51.148;6.950;2023-06-14T02:37:42;7.78;;;4.78;;
64857;SDS011;51335;51.148;6.950;2023-06-14T02:38:12;7.13;;;4.80;;
64857;SDS011;51335;51.148;6.950;2023-06-14T02:38:42;7.57;;;5.03;;
64857;SDS011;51335;51.148;6.950;2023-06-14T02:39:12;11.05;;;5.07;;
64857;SDS011;51335;51.148;6.950;2023-06-14T02:39:43;8.65;;;5.20;;
64857;SDS011;51335;51.148;6.950;2023-06-14T02:40:13;6.30;;;4.72;;
64857;SDS011;51335;51.148;6.950;2023-06-14T02:40:43;7.32;;;4.82;;
64857;SDS011;51335;51.148;6.950;2023-06-14T02:41:14;10.57;;;5.15;;
64857;SDS011;51335;51.148;6.950;2023-06-14T02:41:44;6.65;;;4.97;;
64857;SDS011;51335;51.148;6.950;2023-06-14T02:42:14;9.43;;;5.55;;
64857;SDS011;51335;51.148;6.950;2023-06-14T02:42:44;6.53;;;5.20;;
64857;SDS011;51335;51.148;6.950;2023-06-14T02:43:15;7.60;;;5.22;;
64857;SDS011;51335;51.148;6.950;2023-06-14T02:43:45;7.30;;;5.03;;
64857;SDS011;51335;51.148;6.950;2023-06-14T02:44:17;6.07;;;4.60;;
64857;SDS011;51335;51.148;6.950;2023-06-14T02:44:48;9.30;;;5.05;;
64857;SDS011;51335;51.148;6.950;2023-06-14T02:45:18;7.35;;;5.30;;
64857;SDS011;51335;51.148;6.950;2023-06-14T02:45:48;6.57;;;4.80;;
64857;SDS011;51335;51.148;6.950;2023-06-14T02:46:18;9.20;;;5.68;;
64857;SDS011;51335;51.148;6.950;2023-06-14T02:46:49;6.00;;;4.80;;
64857;SDS011;51335;51.148;6.950;2023-06-14T02:47:19;7.68;;;5.03;;
64857;SDS011;51335;51.148;6.950;2023-06-14T02:47:49;7.25;;;4.68;;
64857;SDS011;51335;51.148;6.950;2023-06-14T02:48:20;7.10;;;4.88;;
64857;SDS011;51335;51.148;6.950;2023-06-14T02:48:50;8.50;;;5.65;;
64857;SDS011;51335;51.148;6.950;2023-06-14T02:49:21;6.78;;;5.13;;
64857;SDS011;51335;51.148;6.950;2023-06-14T02:49:51;9.18;;;5.53;;
64857;SDS011;51335;51.148;6.950;2023-06-14T02:50:21;8.23;;;4.95;;
64857;SDS011;51335;51.148;6.950;2023-06-14T02:50:52;7.03;;;4.78;;
64857;SDS011;51335;51.148;6.950;2023-06-14T02:51:22;6.28;;;4.78;;
64857;SDS011;51335;51.148;6.950;2023-06-14T02:51:52;7.75;;;5.05;;
64857;SDS011;51335;51.148;6.950;2023-06-14T02:52:22;7.88;;;5.00;;
64857;SDS011;51335;51.148;6.950;2023-06-14T02:52:53;8.88;;;4.90;;
64857;SDS011;51335;51.148;6.950;2023-06-14T02:53:23;7.75;;;5.22;;
64857;SDS011;51335;51.148;6.950;2023-06-14T02:53:53;9.38;;;4.82;;
64857;SDS011;51335;51.148;6.950;2023-06-14T02:54:24;5.25;;;4.22;;
64857;SDS011;51335;51.148;6.950;2023-06-14T02:54:54;5.80;;;4.78;;
64857;SDS011;51335;51.148;6.950;2023-06-14T02:55:24;7.85;;;4.53;;
64857;SDS011;51335;51.148;6.950;2023-06-14T02:55:54;6.28;;;4.68;;
64857;SDS011;51335;51.148;6.950;2023-06-14T02:56:25;6.18;;;4.72;;
64857;SDS011;51335;51.148;6.950;2023-06-14T02:56:55;8.57;;;4.95;;
64857;SDS011;51335;51.148;6.950;2023-06-14T02:57:25;7.22;;;5.03;;
64857;SDS011;51335;51.148;6.950;2023-06-14T02:57:55;8.48;;;4.93;;
64857;SDS011;51335;51.148;6.950;2023-06-14T02:58:26;6.53;;;4.80;;
64857;SDS011;51335;51.148;6.950;2023-06-14T02:58:56;7.00;;;4.70;;
64857;SDS011;51335;51.148;6.950;2023-06-14T02:59:27;7.30;;;4.70;;
64857;SDS011;51335;51.148;6.950;2023-06-14T02:59:57;6.85;;;4.85;;
64857;SDS011;51335;51.148;6.950;2023-06-14T03:00:27;8.32;;;4.90;;
64857;SDS011;51335;51.148;6.950;2023-06-14T03:00:57;6.72;;;4.80;;
64857;SDS011;51335;51.148;6.950;2023-06-14T03:01:27;7.75;;;4.53;;
64857;SDS011;51335;51.148;6.950;2023-06-14T03:01:58;7.40;;;5.00;;
64857;SDS011;51335;51.148;6.950;2023-06-14T03:02:28;7.55;;;5.22;;
64857;SDS011;51335;51.148;6.950;2023-06-14T03:02:58;10.05;;;4.63;;
64857;SDS011;51335;51.148;6.950;2023-06-14T03:03:29;6.90;;;4.90;;
64857;SDS011;51335;51.148;6.950;2023-06-14T03:04:02;7.82;;;4.68;;
64857;SDS011;51335;51.148;6.950;2023-06-14T03:04:33;6.57;;;4.68;;
64857;SDS011;51335;51.148;6.950;2023-06-14T03:05:03;6.10;;;4.60;;
64857;SDS011;51335;51.148;6.950;2023-06-14T03:05:34;7.35;;;4.95;;
64857;SDS011;51335;51.148;6.950;2023-06-14T03:06:04;6.75;;;5.03;;
64857;SDS011;51335;51.148;6.950;2023-06-14T03:06:34;7.40;;;4.88;;
64857;SDS011;51335;51.148;6.950;2023-06-14T03:07:05;6.55;;;4.90;;
64857;SDS011;51335;51.148;6.950;2023-06-14T03:07:35;6.38;;;4.85;;
64857;SDS011;51335;51.148;6.950;2023-06-14T03:08:05;6.35;;;4.80;;
64857;SDS011;51335;51.148;6.950;2023-06-14T03:08:35;9.32;;;4.68;;